SWA720 KBNA-KMDW
Flight info
| Callsign | SWA720 |
|---|---|
| Flight time | N/A |
| Altitude | 37000 |
| Route | KRSTA4 OLSIE IIU/N0450F380 DROSE FISSK7 |
| Aircraft | B737/M-SDE2E3FGHIRWXY/LB1 |
Departure
| Time | 2026-05-05 22:11 |
|---|---|
| Airport | Nashville International Airport (KBNA) |
Arrival
| Time | N/A |
|---|---|
| Airport | Chicago Midway International Airport (KMDW) |
| Time | Latitude | Longitude | Altitude | Speed | Heading |
|---|---|---|---|---|---|
| 2026-05-05 21:56 | 36.12753 | -86.66897 | 568 ft | 0 kts | 330° |
| 2026-05-05 22:05 | 36.12752 | -86.66902 | 573 ft | 1 kts | 275° |
| 2026-05-05 22:05 | 36.12744 | -86.66907 | 569 ft | 3 kts | 205° |
| 2026-05-05 22:05 | 36.12706 | -86.66919 | 572 ft | 8 kts | 189° |
| 2026-05-05 22:05 | 36.12637 | -86.66933 | 574 ft | 11 kts | 188° |
| 2026-05-05 22:06 | 36.12558 | -86.66939 | 574 ft | 11 kts | 180° |
| 2026-05-05 22:06 | 36.12482 | -86.66951 | 573 ft | 11 kts | 201° |
| 2026-05-05 22:06 | 36.12421 | -86.67000 | 577 ft | 11 kts | 239° |
| 2026-05-05 22:06 | 36.12445 | -86.67076 | 580 ft | 10 kts | 313° |
| 2026-05-05 22:07 | 36.12494 | -86.67140 | 574 ft | 11 kts | 313° |
| 2026-05-05 22:07 | 36.12549 | -86.67212 | 576 ft | 12 kts | 313° |
| 2026-05-05 22:07 | 36.12609 | -86.67291 | 576 ft | 13 kts | 313° |
| 2026-05-05 22:07 | 36.12677 | -86.67379 | 575 ft | 15 kts | 311° |
| 2026-05-05 22:08 | 36.12646 | -86.67479 | 581 ft | 15 kts | 210° |
| 2026-05-05 22:08 | 36.12563 | -86.67551 | 576 ft | 14 kts | 223° |
| 2026-05-05 22:08 | 36.12493 | -86.67634 | 578 ft | 14 kts | 223° |
| 2026-05-05 22:08 | 36.12411 | -86.67686 | 581 ft | 13 kts | 199° |
| 2026-05-05 22:09 | 36.12356 | -86.67754 | 578 ft | 13 kts | 282° |
| 2026-05-05 22:09 | 36.12376 | -86.67829 | 576 ft | 0 kts | 288° |
| 2026-05-05 22:09 | 36.12381 | -86.67847 | 581 ft | 5 kts | 288° |
| 2026-05-05 22:10 | 36.12401 | -86.67925 | 577 ft | 13 kts | 288° |
| 2026-05-05 22:10 | 36.12371 | -86.67981 | 575 ft | 8 kts | 197° |
| 2026-05-05 22:10 | 36.12360 | -86.67986 | 575 ft | 9 kts | 198° |
| 2026-05-05 22:10 | 36.12042 | -86.68113 | 575 ft | 87 kts | 198° |
| 2026-05-05 22:11 | 36.11241 | -86.68435 | 622 ft | 150 kts | 198° |
| 2026-05-05 22:11 | 36.10199 | -86.68846 | 1295 ft | 157 kts | 198° |
| 2026-05-05 22:11 | 36.09237 | -86.69246 | 2412 ft | 147 kts | 206° |
| 2026-05-05 22:11 | 36.08539 | -86.70327 | 2796 ft | 185 kts | 239° |
| 2026-05-05 22:12 | 36.08015 | -86.71925 | 3121 ft | 214 kts | 243° |
| 2026-05-05 22:12 | 36.07489 | -86.73688 | 3838 ft | 222 kts | 245° |
| 2026-05-05 22:12 | 36.06968 | -86.75466 | 4832 ft | 216 kts | 247° |
| 2026-05-05 22:12 | 36.06739 | -86.77321 | 5698 ft | 224 kts | 265° |
| 2026-05-05 22:13 | 36.06944 | -86.79352 | 6232 ft | 248 kts | 278° |
| 2026-05-05 22:13 | 36.07372 | -86.81430 | 6688 ft | 249 kts | 279° |
| 2026-05-05 22:13 | 36.07828 | -86.83503 | 6958 ft | 253 kts | 283° |
| 2026-05-05 22:13 | 36.08740 | -86.85414 | 7013 ft | 270 kts | 308° |
| 2026-05-05 22:14 | 36.10352 | -86.86717 | 7800 ft | 284 kts | 332° |
| 2026-05-05 22:14 | 36.12325 | -86.87120 | 8915 ft | 298 kts | 357° |
| 2026-05-05 22:14 | 36.14399 | -86.86670 | 9893 ft | 305 kts | 5° |